Costa Marques, Brazil
Current Conditions -  °F | °C
As of 4:00 PM on Wednesday 26 Nov 2014 (Local Time) from SLRI Reporting Station
Rain Showers Rain Showers  
Wind Chill: 84°   Ceiling: 20000
Heat Index: 92°   Visibility: 4mi
Dew Point: 75°   Wind: 9mph
Humidity: 74%   Direction: 360°N
Pressure: 29.68"   Gusts: NA
Location:  12.45°S, 64.23°W
Report Text: SLRI 262000Z 36008KT 7000 VCSH SCT017 FEW020CB BKN200 29/24 Q1005
Loading
Personal Weather Stations






























Interactive Weather Map New forecast layout! Learn more

10-Day Weather Forecast

Advertisements
Track Severe Weather on mobile